sensor_id;sensor_type;location;lat;lon;timestamp;temperature;humidity
66312;HTU21D;53114;51.138;6.008;2023-10-08T00:00:44;17.99;96.84
66312;HTU21D;53114;51.138;6.008;2023-10-08T00:03:19;18.00;96.81
66312;HTU21D;53114;51.138;6.008;2023-10-08T00:05:53;17.97;96.80
66312;HTU21D;53114;51.138;6.008;2023-10-08T00:08:18;17.95;96.68
66312;HTU21D;53114;51.138;6.008;2023-10-08T00:10:45;17.94;96.69
66312;HTU21D;53114;51.138;6.008;2023-10-08T00:13:12;17.92;96.74
66312;HTU21D;53114;51.138;6.008;2023-10-08T00:15:39;17.91;96.77
66312;HTU21D;53114;51.138;6.008;2023-10-08T00:18:21;17.90;96.86
66312;HTU21D;53114;51.138;6.008;2023-10-08T00:20:48;17.89;96.64
66312;HTU21D;53114;51.138;6.008;2023-10-08T00:23:32;17.94;96.35
66312;HTU21D;53114;51.138;6.008;2023-10-08T00:26:01;17.94;96.12
66312;HTU21D;53114;51.138;6.008;2023-10-08T00:28:30;17.97;95.83
66312;HTU21D;53114;51.138;6.008;2023-10-08T00:31:06;17.98;95.26
66312;HTU21D;53114;51.138;6.008;2023-10-08T00:33:39;18.02;94.49
66312;HTU21D;53114;51.138;6.008;2023-10-08T00:36:10;18.04;94.11
66312;HTU21D;53114;51.138;6.008;2023-10-08T00:38:52;18.02;93.75
66312;HTU21D;53114;51.138;6.008;2023-10-08T00:41:24;18.02;93.21
66312;HTU21D;53114;51.138;6.008;2023-10-08T00:43:54;17.99;92.82
66312;HTU21D;53114;51.138;6.008;2023-10-08T00:46:26;17.96;92.92
66312;HTU21D;53114;51.138;6.008;2023-10-08T00:49:02;17.91;93.17
66312;HTU21D;53114;51.138;6.008;2023-10-08T00:51:54;17.84;93.75
66312;HTU21D;53114;51.138;6.008;2023-10-08T00:54:28;17.78;94.07
66312;HTU21D;53114;51.138;6.008;2023-10-08T00:56:54;17.75;94.49
66312;HTU21D;53114;51.138;6.008;2023-10-08T00:59:24;17.68;95.22
66312;HTU21D;53114;51.138;6.008;2023-10-08T01:01:59;17.63;95.88
66312;HTU21D;53114;51.138;6.008;2023-10-08T01:04:30;17.61;96.32
66312;HTU21D;53114;51.138;6.008;2023-10-08T01:07:02;17.60;96.91
66312;HTU21D;53114;51.138;6.008;2023-10-08T01:09:41;17.54;96.91
66312;HTU21D;53114;51.138;6.008;2023-10-08T01:12:22;17.51;96.91
66312;HTU21D;53114;51.138;6.008;2023-10-08T01:15:00;17.47;97.13
66312;HTU21D;53114;51.138;6.008;2023-10-08T01:17:45;17.40;97.45
66312;HTU21D;53114;51.138;6.008;2023-10-08T01:20:22;17.34;97.91
66312;HTU21D;53114;51.138;6.008;2023-10-08T01:23:08;17.29;98.40
66312;HTU21D;53114;51.138;6.008;2023-10-08T01:25:39;17.23;98.64
66312;HTU21D;53114;51.138;6.008;2023-10-08T01:28:07;17.20;98.77
66312;HTU21D;53114;51.138;6.008;2023-10-08T01:30:52;17.15;99.01
66312;HTU21D;53114;51.138;6.008;2023-10-08T01:33:21;17.13;98.90
66312;HTU21D;53114;51.138;6.008;2023-10-08T01:35:48;17.08;99.08
66312;HTU21D;53114;51.138;6.008;2023-10-08T01:38:16;17.08;98.71
66312;HTU21D;53114;51.138;6.008;2023-10-08T01:40:52;17.04;98.84
66312;HTU21D;53114;51.138;6.008;2023-10-08T01:43:18;17.00;98.78
66312;HTU21D;53114;51.138;6.008;2023-10-08T01:45:45;16.94;99.03
66312;HTU21D;53114;51.138;6.008;2023-10-08T01:48:15;16.90;99.13
66312;HTU21D;53114;51.138;6.008;2023-10-08T01:50:46;16.88;99.20
66312;HTU21D;53114;51.138;6.008;2023-10-08T01:53:14;16.85;99.19
66312;HTU21D;53114;51.138;6.008;2023-10-08T01:55:42;16.85;99.16
66312;HTU21D;53114;51.138;6.008;2023-10-08T01:58:13;16.84;99.09
66312;HTU21D;53114;51.138;6.008;2023-10-08T02:00:46;16.80;98.84
66312;HTU21D;53114;51.138;6.008;2023-10-08T02:03:14;16.77;98.73
66312;HTU21D;53114;51.138;6.008;2023-10-08T02:05:45;16.77;98.52
66312;HTU21D;53114;51.138;6.008;2023-10-08T02:08:11;16.74;98.26
66312;HTU21D;53114;51.138;6.008;2023-10-08T02:10:42;16.72;98.10
66312;HTU21D;53114;51.138;6.008;2023-10-08T02:13:10;16.70;98.07
66312;HTU21D;53114;51.138;6.008;2023-10-08T02:15:44;16.67;97.98
66312;HTU21D;53114;51.138;6.008;2023-10-08T02:18:11;16.69;97.81
66312;HTU21D;53114;51.138;6.008;2023-10-08T02:20:41;16.67;97.48
66312;HTU21D;53114;51.138;6.008;2023-10-08T02:23:07;16.70;97.40
66312;HTU21D;53114;51.138;6.008;2023-10-08T02:25:33;16.71;97.03
66312;HTU21D;53114;51.138;6.008;2023-10-08T02:28:03;16.71;96.23
66312;HTU21D;53114;51.138;6.008;2023-10-08T02:30:29;16.69;95.81
66312;HTU21D;53114;51.138;6.008;2023-10-08T02:32:55;16.70;95.31
66312;HTU21D;53114;51.138;6.008;2023-10-08T02:35:21;16.72;94.91
66312;HTU21D;53114;51.138;6.008;2023-10-08T02:37:48;16.75;94.29
66312;HTU21D;53114;51.138;6.008;2023-10-08T02:40:14;16.74;93.80
66312;HTU21D;53114;51.138;6.008;2023-10-08T02:42:53;16.75;92.87
66312;HTU21D;53114;51.138;6.008;2023-10-08T02:45:27;16.74;92.20
66312;HTU21D;53114;51.138;6.008;2023-10-08T02:47:54;16.73;91.72
66312;HTU21D;53114;51.138;6.008;2023-10-08T02:50:21;16.76;91.27
66312;HTU21D;53114;51.138;6.008;2023-10-08T02:52:49;16.76;90.82
66312;HTU21D;53114;51.138;6.008;2023-10-08T02:55:18;16.77;90.39
66312;HTU21D;53114;51.138;6.008;2023-10-08T02:58:02;16.78;90.27
66312;HTU21D;53114;51.138;6.008;2023-10-08T03:00:29;16.78;89.92
66312;HTU21D;53114;51.138;6.008;2023-10-08T03:03:01;16.79;89.78
66312;HTU21D;53114;51.138;6.008;2023-10-08T03:05:35;16.80;89.81
66312;HTU21D;53114;51.138;6.008;2023-10-08T03:08:03;16.81;89.32
66312;HTU21D;53114;51.138;6.008;2023-10-08T03:10:40;16.81;88.83
66312;HTU21D;53114;51.138;6.008;2023-10-08T03:13:08;16.82;88.65
66312;HTU21D;53114;51.138;6.008;2023-10-08T03:15:35;16.82;88.32
66312;HTU21D;53114;51.138;6.008;2023-10-08T03:18:24;16.84;88.15
66312;HTU21D;53114;51.138;6.008;2023-10-08T03:20:50;16.82;88.03
66312;HTU21D;53114;51.138;6.008;2023-10-08T03:23:18;16.82;88.35
66312;HTU21D;53114;51.138;6.008;2023-10-08T03:26:01;16.80;88.11
66312;HTU21D;53114;51.138;6.008;2023-10-08T03:28:38;16.78;87.98
66312;HTU21D;53114;51.138;6.008;2023-10-08T03:31:07;16.80;87.93
66312;HTU21D;53114;51.138;6.008;2023-10-08T03:33:42;16.81;87.60
66312;HTU21D;53114;51.138;6.008;2023-10-08T03:36:09;16.79;87.44
66312;HTU21D;53114;51.138;6.008;2023-10-08T03:38:40;16.81;87.10
66312;HTU21D;53114;51.138;6.008;2023-10-08T03:41:24;16.79;87.36
66312;HTU21D;53114;51.138;6.008;2023-10-08T03:43:54;16.80;87.28
66312;HTU21D;53114;51.138;6.008;2023-10-08T03:46:31;16.79;87.24
66312;HTU21D;53114;51.138;6.008;2023-10-08T03:48:57;16.79;87.32
66312;HTU21D;53114;51.138;6.008;2023-10-08T03:51:31;16.79;87.25
66312;HTU21D;53114;51.138;6.008;2023-10-08T03:54:08;16.80;87.04
66312;HTU21D;53114;51.138;6.008;2023-10-08T03:56:35;16.82;86.75
66312;HTU21D;53114;51.138;6.008;2023-10-08T03:59:02;16.85;86.84
66312;HTU21D;53114;51.138;6.008;2023-10-08T04:01:54;16.87;86.86
66312;HTU21D;53114;51.138;6.008;2023-10-08T04:04:25;16.84;86.94
66312;HTU21D;53114;51.138;6.008;2023-10-08T04:07:22;16.82;86.93
66312;HTU21D;53114;51.138;6.008;2023-10-08T04:10:07;16.82;87.15
66312;HTU21D;53114;51.138;6.008;2023-10-08T04:12:33;16.85;87.37
66312;HTU21D;53114;51.138;6.008;2023-10-08T04:15:07;16.84;87.55
66312;HTU21D;53114;51.138;6.008;2023-10-08T04:17:35;16.84;87.13
66312;HTU21D;53114;51.138;6.008;2023-10-08T04:20:14;16.79;87.05
66312;HTU21D;53114;51.138;6.008;2023-10-08T04:23:00;16.78;86.57
66312;HTU21D;53114;51.138;6.008;2023-10-08T04:25:26;16.76;86.64
66312;HTU21D;53114;51.138;6.008;2023-10-08T04:27:57;16.75;86.75
66312;HTU21D;53114;51.138;6.008;2023-10-08T04:30:26;16.73;86.93
66312;HTU21D;53114;51.138;6.008;2023-10-08T04:33:03;16.72;87.44
66312;HTU21D;53114;51.138;6.008;2023-10-08T04:35:35;16.70;87.92
66312;HTU21D;53114;51.138;6.008;2023-10-08T04:38:15;16.69;88.28
66312;HTU21D;53114;51.138;6.008;2023-10-08T04:40:44;16.66;88.55
66312;HTU21D;53114;51.138;6.008;2023-10-08T04:43:15;16.66;88.31
66312;HTU21D;53114;51.138;6.008;2023-10-08T04:45:41;16.64;88.39
66312;HTU21D;53114;51.138;6.008;2023-10-08T04:48:07;16.64;88.36
66312;HTU21D;53114;51.138;6.008;2023-10-08T04:50:36;16.64;88.23
66312;HTU21D;53114;51.138;6.008;2023-10-08T04:53:03;16.62;88.13
66312;HTU21D;53114;51.138;6.008;2023-10-08T04:55:36;16.59;87.80
66312;HTU21D;53114;51.138;6.008;2023-10-08T04:58:07;16.56;88.02
66312;HTU21D;53114;51.138;6.008;2023-10-08T05:00:45;16.51;88.26
66312;HTU21D;53114;51.138;6.008;2023-10-08T05:03:25;16.48;88.74
66312;HTU21D;53114;51.138;6.008;2023-10-08T05:05:58;16.45;89.32
66312;HTU21D;53114;51.138;6.008;2023-10-08T05:08:46;16.41;89.41
66312;HTU21D;53114;51.138;6.008;2023-10-08T05:11:24;16.35;89.39
66312;HTU21D;53114;51.138;6.008;2023-10-08T05:14:02;16.30;89.65
66312;HTU21D;53114;51.138;6.008;2023-10-08T05:16:32;16.25;90.23
66312;HTU21D;53114;51.138;6.008;2023-10-08T05:19:09;16.19;90.88
66312;HTU21D;53114;51.138;6.008;2023-10-08T05:22:03;16.15;91.28
66312;HTU21D;53114;51.138;6.008;2023-10-08T05:24:50;16.13;91.97
66312;HTU21D;53114;51.138;6.008;2023-10-08T05:27:42;16.12;92.33
66312;HTU21D;53114;51.138;6.008;2023-10-08T05:30:16;16.12;92.53
66312;HTU21D;53114;51.138;6.008;2023-10-08T05:32:53;16.11;92.48
66312;HTU21D;53114;51.138;6.008;2023-10-08T05:35:39;16.11;92.74
66312;HTU21D;53114;51.138;6.008;2023-10-08T05:38:08;16.11;92.90
66312;HTU21D;53114;51.138;6.008;2023-10-08T05:40:51;16.01;93.97
66312;HTU21D;53114;51.138;6.008;2023-10-08T05:43:35;15.86;96.57
66312;HTU21D;53114;51.138;6.008;2023-10-08T05:48:54;15.61;100.52
66312;HTU21D;53114;51.138;6.008;2023-10-08T05:51:38;15.49;102.92
66312;HTU21D;53114;51.138;6.008;2023-10-08T05:54:23;15.39;105.04
66312;HTU21D;53114;51.138;6.008;2023-10-08T05:57:07;15.32;106.45
66312;HTU21D;53114;51.138;6.008;2023-10-08T06:02:26;15.26;108.46
66312;HTU21D;53114;51.138;6.008;2023-10-08T06:05:08;15.28;109.14
66312;HTU21D;53114;51.138;6.008;2023-10-08T06:07:38;15.32;109.46
66312;HTU21D;53114;51.138;6.008;2023-10-08T06:10:16;15.40;109.13
66312;HTU21D;53114;51.138;6.008;2023-10-08T06:13:02;15.48;108.24
66312;HTU21D;53114;51.138;6.008;2023-10-08T06:15:46;15.52;108.00
66312;HTU21D;53114;51.138;6.008;2023-10-08T06:18:22;15.55;107.66
66312;HTU21D;53114;51.138;6.008;2023-10-08T06:20:56;15.52;108.46
66312;HTU21D;53114;51.138;6.008;2023-10-08T06:23:28;15.51;109.91
66312;HTU21D;53114;51.138;6.008;2023-10-08T06:26:01;15.51;110.20
66312;HTU21D;53114;51.138;6.008;2023-10-08T06:28:38;15.48;111.04
66312;HTU21D;53114;51.138;6.008;2023-10-08T06:31:05;15.52;112.04
66312;HTU21D;53114;51.138;6.008;2023-10-08T06:33:39;15.53;112.71
66312;HTU21D;53114;51.138;6.008;2023-10-08T06:36:06;15.57;114.32
66312;HTU21D;53114;51.138;6.008;2023-10-08T06:38:40;15.63;114.22
66312;HTU21D;53114;51.138;6.008;2023-10-08T06:41:09;15.65;113.71
66312;HTU21D;53114;51.138;6.008;2023-10-08T06:43:41;15.61;113.83
66312;HTU21D;53114;51.138;6.008;2023-10-08T06:46:29;15.60;113.87
66312;HTU21D;53114;51.138;6.008;2023-10-08T06:48:59;15.61;113.67
66312;HTU21D;53114;51.138;6.008;2023-10-08T06:51:25;15.66;113.57
66312;HTU21D;53114;51.138;6.008;2023-10-08T06:53:52;15.72;112.69
66312;HTU21D;53114;51.138;6.008;2023-10-08T06:56:20;15.81;111.32
66312;HTU21D;53114;51.138;6.008;2023-10-08T06:58:46;15.86;110.05
66312;HTU21D;53114;51.138;6.008;2023-10-08T07:01:22;15.98;108.47
66312;HTU21D;53114;51.138;6.008;2023-10-08T07:03:59;16.07;106.79
66312;HTU21D;53114;51.138;6.008;2023-10-08T07:06:34;16.13;105.69
66312;HTU21D;53114;51.138;6.008;2023-10-08T07:09:03;16.11;105.98
66312;HTU21D;53114;51.138;6.008;2023-10-08T07:11:39;16.13;105.47
66312;HTU21D;53114;51.138;6.008;2023-10-08T07:14:10;16.20;104.18
66312;HTU21D;53114;51.138;6.008;2023-10-08T07:16:36;16.25;103.12
66312;HTU21D;53114;51.138;6.008;2023-10-08T07:19:02;16.28;102.03
66312;HTU21D;53114;51.138;6.008;2023-10-08T07:21:31;16.32;101.07
66312;HTU21D;53114;51.138;6.008;2023-10-08T07:24:12;16.37;100.13
66312;HTU21D;53114;51.138;6.008;2023-10-08T07:26:43;16.44;100.19
66312;HTU21D;53114;51.138;6.008;2023-10-08T07:29:14;16.48;100.46
66312;HTU21D;53114;51.138;6.008;2023-10-08T07:31:44;16.59;100.11
66312;HTU21D;53114;51.138;6.008;2023-10-08T07:34:20;16.71;98.70
66312;HTU21D;53114;51.138;6.008;2023-10-08T07:36:54;16.76;98.83
66312;HTU21D;53114;51.138;6.008;2023-10-08T07:39:21;16.84;98.45
66312;HTU21D;53114;51.138;6.008;2023-10-08T07:41:53;16.86;98.97
66312;HTU21D;53114;51.138;6.008;2023-10-08T07:44:23;16.87;100.00
66312;HTU21D;53114;51.138;6.008;2023-10-08T07:46:50;16.92;99.95
66312;HTU21D;53114;51.138;6.008;2023-10-08T07:49:17;17.00;98.92
66312;HTU21D;53114;51.138;6.008;2023-10-08T07:51:43;17.07;99.11
66312;HTU21D;53114;51.138;6.008;2023-10-08T07:54:23;17.15;97.86
66312;HTU21D;53114;51.138;6.008;2023-10-08T07:57:03;17.26;96.99
66312;HTU21D;53114;51.138;6.008;2023-10-08T07:59:39;17.40;94.85
66312;HTU21D;53114;51.138;6.008;2023-10-08T08:02:16;17.56;92.53
66312;HTU21D;53114;51.138;6.008;2023-10-08T08:04:44;17.68;89.11
66312;HTU21D;53114;51.138;6.008;2023-10-08T08:07:11;17.81;87.52
66312;HTU21D;53114;51.138;6.008;2023-10-08T08:09:50;17.99;85.99
66312;HTU21D;53114;51.138;6.008;2023-10-08T08:12:21;18.15;84.19
66312;HTU21D;53114;51.138;6.008;2023-10-08T08:14:48;18.29;82.68
66312;HTU21D;53114;51.138;6.008;2023-10-08T08:17:14;18.41;81.22
66312;HTU21D;53114;51.138;6.008;2023-10-08T08:19:41;18.59;80.57
66312;HTU21D;53114;51.138;6.008;2023-10-08T08:22:10;18.95;81.01
66312;HTU21D;53114;51.138;6.008;2023-10-08T08:24:41;20.11;79.14
66312;HTU21D;53114;51.138;6.008;2023-10-08T08:27:13;21.82;68.33
66312;HTU21D;53114;51.138;6.008;2023-10-08T08:29:57;23.43;59.70
66312;HTU21D;53114;51.138;6.008;2023-10-08T08:32:39;24.63;54.76
66312;HTU21D;53114;51.138;6.008;2023-10-08T08:35:07;25.51;51.53
66312;HTU21D;53114;51.138;6.008;2023-10-08T08:37:33;26.23;49.32
66312;HTU21D;53114;51.138;6.008;2023-10-08T08:40:02;26.61;47.59
66312;HTU21D;53114;51.138;6.008;2023-10-08T08:42:34;26.76;47.07
66312;HTU21D;53114;51.138;6.008;2023-10-08T08:45:07;26.71;46.24
66312;HTU21D;53114;51.138;6.008;2023-10-08T08:47:35;25.98;47.41
66312;HTU21D;53114;51.138;6.008;2023-10-08T08:50:02;25.23;49.18
66312;HTU21D;53114;51.138;6.008;2023-10-08T08:52:36;24.53;50.83
66312;HTU21D;53114;51.138;6.008;2023-10-08T08:55:06;23.87;52.53
66312;HTU21D;53114;51.138;6.008;2023-10-08T08:57:41;23.31;54.31
66312;HTU21D;53114;51.138;6.008;2023-10-08T09:00:08;22.85;55.52
66312;HTU21D;53114;51.138;6.008;2023-10-08T09:02:38;22.47;57.03
66312;HTU21D;53114;51.138;6.008;2023-10-08T09:05:05;22.17;58.10
66312;HTU21D;53114;51.138;6.008;2023-10-08T09:08:02;21.87;59.16
66312;HTU21D;53114;51.138;6.008;2023-10-08T09:10:31;21.66;60.20
66312;HTU21D;53114;51.138;6.008;2023-10-08T09:13:04;21.40;61.47
66312;HTU21D;53114;51.138;6.008;2023-10-08T09:15:31;21.21;62.31
66312;HTU21D;53114;51.138;6.008;2023-10-08T09:18:00;21.10;63.24
66312;HTU21D;53114;51.138;6.008;2023-10-08T09:20:27;21.05;64.38
66312;HTU21D;53114;51.138;6.008;2023-10-08T09:23:13;21.06;65.50
66312;HTU21D;53114;51.138;6.008;2023-10-08T09:25:41;21.13;65.50
66312;HTU21D;53114;51.138;6.008;2023-10-08T09:28:08;21.18;65.57
66312;HTU21D;53114;51.138;6.008;2023-10-08T09:30:35;21.21;65.62
66312;HTU21D;53114;51.138;6.008;2023-10-08T09:33:07;21.20;66.01
66312;HTU21D;53114;51.138;6.008;2023-10-08T09:35:34;21.25;66.30
66312;HTU21D;53114;51.138;6.008;2023-10-08T09:38:05;21.33;66.24
66312;HTU21D;53114;51.138;6.008;2023-10-08T09:40:31;21.47;65.96
66312;HTU21D;53114;51.138;6.008;2023-10-08T09:42:59;21.65;65.56
66312;HTU21D;53114;51.138;6.008;2023-10-08T09:45:25;22.03;64.90
66312;HTU21D;53114;51.138;6.008;2023-10-08T09:47:55;22.64;62.59
66312;HTU21D;53114;51.138;6.008;2023-10-08T09:50:29;23.03;61.63
66312;HTU21D;53114;51.138;6.008;2023-10-08T09:53:08;23.41;59.51
66312;HTU21D;53114;51.138;6.008;2023-10-08T09:55:53;23.11;58.51
66312;HTU21D;53114;51.138;6.008;2023-10-08T09:58:21;23.02;59.53
66312;HTU21D;53114;51.138;6.008;2023-10-08T10:00:55;22.98;60.01
66312;HTU21D;53114;51.138;6.008;2023-10-08T10:03:22;23.25;60.08
66312;HTU21D;53114;51.138;6.008;2023-10-08T10:05:52;23.52;59.27
66312;HTU21D;53114;51.138;6.008;2023-10-08T10:08:25;23.44;59.42
66312;HTU21D;53114;51.138;6.008;2023-10-08T10:11:00;23.61;59.57
66312;HTU21D;53114;51.138;6.008;2023-10-08T10:13:35;23.67;58.83
66312;HTU21D;53114;51.138;6.008;2023-10-08T10:16:05;23.72;58.64
66312;HTU21D;53114;51.138;6.008;2023-10-08T10:18:34;24.10;58.41
66312;HTU21D;53114;51.138;6.008;2023-10-08T10:23:47;24.82;55.41
66312;HTU21D;53114;51.138;6.008;2023-10-08T10:26:35;25.09;54.68
66312;HTU21D;53114;51.138;6.008;2023-10-08T10:31:33;24.95;54.44
66312;HTU21D;53114;51.138;6.008;2023-10-08T10:34:06;24.87;54.82
66312;HTU21D;53114;51.138;6.008;2023-10-08T10:36:40;24.76;55.18
66312;HTU21D;53114;51.138;6.008;2023-10-08T10:39:10;24.62;55.42
66312;HTU21D;53114;51.138;6.008;2023-10-08T10:41:44;24.53;55.90
66312;HTU21D;53114;51.138;6.008;2023-10-08T10:44:11;24.41;56.07
66312;HTU21D;53114;51.138;6.008;2023-10-08T10:46:43;24.28;57.11
66312;HTU21D;53114;51.138;6.008;2023-10-08T10:49:09;24.15;57.69
66312;HTU21D;53114;51.138;6.008;2023-10-08T10:51:49;24.05;58.10
66312;HTU21D;53114;51.138;6.008;2023-10-08T10:54:20;23.97;58.42
66312;HTU21D;53114;51.138;6.008;2023-10-08T10:56:52;23.85;58.88
66312;HTU21D;53114;51.138;6.008;2023-10-08T10:59:39;23.97;59.27
66312;HTU21D;53114;51.138;6.008;2023-10-08T11:02:06;24.29;58.70
66312;HTU21D;53114;51.138;6.008;2023-10-08T11:04:47;24.75;58.12
66312;HTU21D;53114;51.138;6.008;2023-10-08T11:07:21;25.03;57.02
66312;HTU21D;53114;51.138;6.008;2023-10-08T11:09:50;24.92;57.16
66312;HTU21D;53114;51.138;6.008;2023-10-08T11:12:18;24.29;58.46
66312;HTU21D;53114;51.138;6.008;2023-10-08T11:14:49;23.64;60.33
66312;HTU21D;53114;51.138;6.008;2023-10-08T11:17:26;23.21;62.15
66312;HTU21D;53114;51.138;6.008;2023-10-08T11:19:54;22.90;63.54
66312;HTU21D;53114;51.138;6.008;2023-10-08T11:22:21;22.72;64.82
66312;HTU21D;53114;51.138;6.008;2023-10-08T11:24:48;22.78;65.75
66312;HTU21D;53114;51.138;6.008;2023-10-08T11:27:19;22.83;65.50
66312;HTU21D;53114;51.138;6.008;2023-10-08T11:29:56;22.86;65.66
66312;HTU21D;53114;51.138;6.008;2023-10-08T11:32:26;22.86;66.85
66312;HTU21D;53114;51.138;6.008;2023-10-08T11:34:56;22.99;66.82
66312;HTU21D;53114;51.138;6.008;2023-10-08T11:37:29;23.09;66.49
66312;HTU21D;53114;51.138;6.008;2023-10-08T11:39:56;23.11;67.01
66312;HTU21D;53114;51.138;6.008;2023-10-08T11:42:25;23.12;66.50
66312;HTU21D;53114;51.138;6.008;2023-10-08T11:44:57;23.00;67.37
66312;HTU21D;53114;51.138;6.008;2023-10-08T11:47:25;22.94;67.72
66312;HTU21D;53114;51.138;6.008;2023-10-08T11:49:57;22.87;69.12
66312;HTU21D;53114;51.138;6.008;2023-10-08T11:52:37;22.90;68.59
66312;HTU21D;53114;51.138;6.008;2023-10-08T11:55:08;22.90;67.57
66312;HTU21D;53114;51.138;6.008;2023-10-08T11:57:35;22.86;68.41
66312;HTU21D;53114;51.138;6.008;2023-10-08T12:00:05;22.88;69.66
66312;HTU21D;53114;51.138;6.008;2023-10-08T12:02:51;22.87;68.90
66312;HTU21D;53114;51.138;6.008;2023-10-08T12:05:23;22.90;68.40
66312;HTU21D;53114;51.138;6.008;2023-10-08T12:07:51;22.95;68.62
66312;HTU21D;53114;51.138;6.008;2023-10-08T12:10:18;23.03;68.62
66312;HTU21D;53114;51.138;6.008;2023-10-08T12:12:51;23.11;66.27
66312;HTU21D;53114;51.138;6.008;2023-10-08T12:15:26;23.11;66.67
66312;HTU21D;53114;51.138;6.008;2023-10-08T12:18:05;23.17;67.15
66312;HTU21D;53114;51.138;6.008;2023-10-08T12:20:38;23.27;67.82
66312;HTU21D;53114;51.138;6.008;2023-10-08T12:23:05;23.18;67.94
66312;HTU21D;53114;51.138;6.008;2023-10-08T12:25:32;23.16;67.71
66312;HTU21D;53114;51.138;6.008;2023-10-08T12:28:00;23.21;68.20
66312;HTU21D;53114;51.138;6.008;2023-10-08T12:30:33;23.27;68.83
66312;HTU21D;53114;51.138;6.008;2023-10-08T12:33:08;23.32;67.95
66312;HTU21D;53114;51.138;6.008;2023-10-08T12:35:44;23.32;67.39
66312;HTU21D;53114;51.138;6.008;2023-10-08T12:38:10;23.24;68.04
66312;HTU21D;53114;51.138;6.008;2023-10-08T12:40:36;23.21;67.98
66312;HTU21D;53114;51.138;6.008;2023-10-08T12:43:16;23.17;70.03
66312;HTU21D;53114;51.138;6.008;2023-10-08T12:45:46;23.13;70.20
66312;HTU21D;53114;51.138;6.008;2023-10-08T12:48:21;23.08;70.76
66312;HTU21D;53114;51.138;6.008;2023-10-08T12:50:48;23.01;69.97
66312;HTU21D;53114;51.138;6.008;2023-10-08T12:53:28;23.00;68.81
66312;HTU21D;53114;51.138;6.008;2023-10-08T12:56:05;23.01;69.81
66312;HTU21D;53114;51.138;6.008;2023-10-08T12:58:36;23.01;68.75
66312;HTU21D;53114;51.138;6.008;2023-10-08T13:01:10;23.02;70.27
66312;HTU21D;53114;51.138;6.008;2023-10-08T13:03:37;23.03;71.35
66312;HTU21D;53114;51.138;6.008;2023-10-08T13:06:14;22.95;70.67
66312;HTU21D;53114;51.138;6.008;2023-10-08T13:08:51;22.87;70.90
66312;HTU21D;53114;51.138;6.008;2023-10-08T13:11:19;22.82;72.70
66312;HTU21D;53114;51.138;6.008;2023-10-08T13:13:51;22.72;74.23
66312;HTU21D;53114;51.138;6.008;2023-10-08T13:16:19;22.65;73.28
66312;HTU21D;53114;51.138;6.008;2023-10-08T13:18:50;22.67;73.30
66312;HTU21D;53114;51.138;6.008;2023-10-08T13:21:16;22.65;71.38
66312;HTU21D;53114;51.138;6.008;2023-10-08T13:23:44;22.66;72.13
66312;HTU21D;53114;51.138;6.008;2023-10-08T13:26:12;22.67;73.09
66312;HTU21D;53114;51.138;6.008;2023-10-08T13:28:43;22.67;73.96
66312;HTU21D;53114;51.138;6.008;2023-10-08T13:31:10;22.69;74.62
66312;HTU21D;53114;51.138;6.008;2023-10-08T13:33:42;22.73;74.44
66312;HTU21D;53114;51.138;6.008;2023-10-08T13:36:10;22.77;76.32
66312;HTU21D;53114;51.138;6.008;2023-10-08T13:38:36;22.81;75.18
66312;HTU21D;53114;51.138;6.008;2023-10-08T13:41:04;22.84;74.59
66312;HTU21D;53114;51.138;6.008;2023-10-08T13:43:50;22.83;74.34
66312;HTU21D;53114;51.138;6.008;2023-10-08T13:46:27;22.73;72.57
66312;HTU21D;53114;51.138;6.008;2023-10-08T13:48:53;22.68;72.99
66312;HTU21D;53114;51.138;6.008;2023-10-08T13:51:21;22.64;75.68
66312;HTU21D;53114;51.138;6.008;2023-10-08T13:53:52;22.62;76.56
66312;HTU21D;53114;51.138;6.008;2023-10-08T13:56:22;22.64;74.97
66312;HTU21D;53114;51.138;6.008;2023-10-08T13:58:56;22.68;73.44
66312;HTU21D;53114;51.138;6.008;2023-10-08T14:01:33;22.67;72.77
66312;HTU21D;53114;51.138;6.008;2023-10-08T14:04:00;22.60;74.25
66312;HTU21D;53114;51.138;6.008;2023-10-08T14:06:38;22.46;76.34
66312;HTU21D;53114;51.138;6.008;2023-10-08T14:09:13;22.29;78.58
66312;HTU21D;53114;51.138;6.008;2023-10-08T14:11:47;22.28;77.11
66312;HTU21D;53114;51.138;6.008;2023-10-08T14:14:13;22.33;78.33
66312;HTU21D;53114;51.138;6.008;2023-10-08T14:16:42;22.36;80.91
66312;HTU21D;53114;51.138;6.008;2023-10-08T14:19:10;22.37;82.21
66312;HTU21D;53114;51.138;6.008;2023-10-08T14:21:39;22.38;82.69
66312;HTU21D;53114;51.138;6.008;2023-10-08T14:24:17;22.41;82.27
66312;HTU21D;53114;51.138;6.008;2023-10-08T14:26:44;22.44;83.66
66312;HTU21D;53114;51.138;6.008;2023-10-08T14:29:12;22.51;82.91
66312;HTU21D;53114;51.138;6.008;2023-10-08T14:31:42;22.52;83.00
66312;HTU21D;53114;51.138;6.008;2023-10-08T14:34:10;22.51;80.73
66312;HTU21D;53114;51.138;6.008;2023-10-08T14:36:46;22.53;80.92
66312;HTU21D;53114;51.138;6.008;2023-10-08T14:39:32;22.52;82.29
66312;HTU21D;53114;51.138;6.008;2023-10-08T14:42:28;22.52;80.81
66312;HTU21D;53114;51.138;6.008;2023-10-08T14:45:12;22.46;82.56
66312;HTU21D;53114;51.138;6.008;2023-10-08T14:47:39;22.39;84.67
66312;HTU21D;53114;51.138;6.008;2023-10-08T14:50:07;22.31;84.94
66312;HTU21D;53114;51.138;6.008;2023-10-08T14:52:45;22.25;83.61
66312;HTU21D;53114;51.138;6.008;2023-10-08T14:55:12;22.16;83.29
66312;HTU21D;53114;51.138;6.008;2023-10-08T14:57:42;22.04;83.57
66312;HTU21D;53114;51.138;6.008;2023-10-08T15:00:09;21.92;85.95
66312;HTU21D;53114;51.138;6.008;2023-10-08T15:02:37;21.78;88.84
66312;HTU21D;53114;51.138;6.008;2023-10-08T15:05:05;21.64;92.01
66312;HTU21D;53114;51.138;6.008;2023-10-08T15:07:32;21.51;95.00
66312;HTU21D;53114;51.138;6.008;2023-10-08T15:09:59;21.34;97.68
66312;HTU21D;53114;51.138;6.008;2023-10-08T15:12:29;21.27;97.82
66312;HTU21D;53114;51.138;6.008;2023-10-08T15:15:01;21.21;97.76
66312;HTU21D;53114;51.138;6.008;2023-10-08T15:17:41;21.17;99.45
66312;HTU21D;53114;51.138;6.008;2023-10-08T15:20:10;21.08;100.39
66312;HTU21D;53114;51.138;6.008;2023-10-08T15:22:47;21.07;100.47
66312;HTU21D;53114;51.138;6.008;2023-10-08T15:25:14;21.07;99.40
66312;HTU21D;53114;51.138;6.008;2023-10-08T15:27:43;21.05;100.00
66312;HTU21D;53114;51.138;6.008;2023-10-08T15:30:12;21.03;100.58
66312;HTU21D;53114;51.138;6.008;2023-10-08T15:32:42;20.99;101.18
66312;HTU21D;53114;51.138;6.008;2023-10-08T15:35:19;21.02;100.90
66312;HTU21D;53114;51.138;6.008;2023-10-08T15:37:46;20.99;101.28
66312;HTU21D;53114;51.138;6.008;2023-10-08T15:40:13;20.93;102.82
66312;HTU21D;53114;51.138;6.008;2023-10-08T15:42:54;20.79;105.11
66312;HTU21D;53114;51.138;6.008;2023-10-08T15:45:22;20.68;107.78
66312;HTU21D;53114;51.138;6.008;2023-10-08T15:47:50;20.55;109.75
66312;HTU21D;53114;51.138;6.008;2023-10-08T15:50:16;20.46;111.55
66312;HTU21D;53114;51.138;6.008;2023-10-08T15:52:42;20.40;112.92
66312;HTU21D;53114;51.138;6.008;2023-10-08T15:55:09;20.34;114.34
66312;HTU21D;53114;51.138;6.008;2023-10-08T15:57:36;20.30;115.80